createdAt,value
2019-01-12T00:01:37.573Z,91.31
2019-01-12T00:04:05.243Z,91.71
2019-01-12T00:06:32.672Z,92.27
2019-01-12T00:09:00.147Z,92.86
2019-01-12T00:11:27.592Z,93.33
2019-01-12T00:13:55.432Z,93.57
2019-01-12T00:16:23.178Z,93.63
2019-01-12T00:18:50.742Z,93.54
2019-01-12T00:21:18.158Z,93.41
2019-01-12T00:23:45.627Z,93.36
2019-01-12T00:26:13.052Z,93.06
2019-01-12T00:28:40.496Z,93.05
2019-01-12T00:31:07.923Z,93.03
2019-01-12T00:33:35.363Z,92.92
2019-01-12T00:36:02.743Z,92.75
2019-01-12T00:38:30.367Z,92.77
2019-01-12T00:40:57.802Z,92.49
2019-01-12T00:43:25.257Z,92.50
2019-01-12T00:45:52.667Z,92.23
2019-01-12T00:48:20.123Z,92.02
2019-01-12T00:50:47.512Z,91.75
2019-01-12T00:53:14.984Z,91.71
2019-01-12T00:55:44.593Z,91.74
2019-01-12T00:58:12.073Z,91.77
2019-01-12T01:00:39.592Z,91.70
2019-01-12T01:03:07.007Z,91.80
2019-01-12T01:05:34.462Z,92.15
2019-01-12T01:08:02.100Z,92.47
2019-01-12T01:10:29.532Z,92.89
2019-01-12T01:12:56.978Z,93.17
2019-01-12T01:15:24.444Z,93.27
2019-01-12T01:17:51.878Z,93.05
2019-01-12T01:20:19.407Z,93.03
2019-01-12T01:22:46.823Z,93.00
2019-01-12T01:25:14.678Z,93.09
2019-01-12T01:27:42.150Z,93.02
2019-01-12T01:30:13.152Z,93.01
2019-01-12T01:32:40.572Z,93.01
2019-01-12T01:35:08.113Z,92.91
2019-01-12T01:37:35.511Z,92.61
2019-01-12T01:40:03.936Z,92.66
2019-01-12T01:42:31.293Z,92.41
2019-01-12T01:44:58.717Z,92.54
2019-01-12T01:47:26.147Z,92.58
2019-01-12T01:49:53.623Z,92.62
2019-01-12T01:52:21.038Z,92.58
2019-01-12T01:54:52.818Z,92.49
2019-01-12T01:57:17.898Z,92.25
2019-01-12T01:59:45.365Z,92.13
2019-01-12T02:02:12.782Z,92.17
2019-01-12T02:04:40.242Z,92.02
2019-01-12T02:07:07.677Z,92.17
2019-01-12T02:09:35.122Z,91.95
2019-01-12T02:12:02.574Z,92.06
2019-01-12T02:14:30.033Z,92.01
2019-01-12T02:16:57.557Z,92.12
2019-01-12T02:19:24.947Z,91.89
2019-01-12T02:21:52.387Z,91.95
2019-01-12T02:24:19.802Z,91.85
2019-01-12T02:26:47.275Z,91.96
2019-01-12T02:29:14.692Z,92.03
2019-01-12T02:31:42.601Z,91.85
2019-01-12T02:34:10.046Z,91.80
2019-01-12T02:36:37.533Z,91.86
2019-01-12T02:39:06.822Z,92.04
2019-01-12T02:41:34.369Z,92.08
2019-01-12T02:44:01.812Z,92.18
2019-01-12T02:46:29.249Z,92.26
2019-01-12T02:48:56.652Z,92.25
2019-01-12T02:51:24.122Z,92.33
2019-01-12T02:53:51.540Z,92.31
2019-01-12T02:56:19.010Z,92.57
2019-01-12T02:58:46.477Z,92.77
2019-01-12T03:01:13.972Z,92.90
2019-01-12T03:03:41.377Z,92.96
2019-01-12T03:06:08.867Z,93.00
2019-01-12T03:08:36.249Z,93.08
2019-01-12T03:11:03.902Z,93.16
2019-01-12T03:13:31.357Z,93.14
2019-01-12T03:15:58.868Z,93.21
2019-01-12T03:18:26.310Z,93.35
2019-01-12T03:20:53.801Z,93.53
2019-01-12T03:23:21.245Z,93.67
2019-01-12T03:25:48.683Z,94.03
2019-01-12T03:28:16.122Z,94.32
2019-01-12T03:30:43.607Z,94.55
2019-01-12T03:33:10.982Z,94.69
2019-01-12T03:35:38.665Z,94.61
2019-01-12T03:38:06.114Z,94.57
2019-01-12T03:40:33.508Z,94.61
2019-01-12T03:43:01.008Z,94.36
2019-01-12T03:45:28.405Z,94.31
2019-01-12T03:47:55.882Z,93.97
2019-01-12T03:50:23.279Z,93.94
2019-01-12T03:52:50.754Z,93.79
2019-01-12T03:55:25.252Z,93.71
2019-01-12T03:57:47.652Z,93.73
2019-01-12T04:00:17.977Z,93.58
2019-01-12T04:02:45.428Z,93.78
2019-01-12T04:05:13.392Z,93.95
2019-01-12T04:07:40.896Z,94.03
2019-01-12T04:10:08.655Z,94.15
2019-01-12T04:12:36.132Z,94.23
2019-01-12T04:15:04.489Z,94.33
2019-01-12T04:17:31.957Z,94.54
2019-01-12T04:19:59.612Z,94.63
2019-01-12T04:22:27.049Z,94.65
2019-01-12T04:24:54.432Z,94.56
2019-01-12T04:27:21.955Z,94.50
2019-01-12T04:29:49.396Z,94.49
2019-01-12T04:32:16.987Z,94.63
2019-01-12T04:34:44.379Z,94.64
2019-01-12T04:37:11.841Z,94.67
2019-01-12T04:39:39.272Z,94.83
2019-01-12T04:42:06.739Z,94.67
2019-01-12T04:44:34.127Z,94.54
2019-01-12T04:47:01.568Z,94.59
2019-01-12T04:49:29.022Z,94.58
2019-01-12T04:51:56.437Z,94.38
2019-01-12T04:54:23.895Z,94.17
2019-01-12T04:56:51.347Z,93.83
2019-01-12T04:59:18.822Z,93.71
2019-01-12T05:01:46.253Z,93.38
2019-01-12T05:04:13.702Z,93.07
2019-01-12T05:07:04.954Z,92.97
2019-01-12T05:09:32.391Z,92.98
2019-01-12T05:11:59.802Z,93.12
2019-01-12T05:14:27.277Z,93.14
2019-01-12T05:16:54.702Z,93.21
2019-01-12T05:19:22.177Z,93.28
2019-01-12T05:21:49.622Z,93.38
2019-01-12T05:24:17.067Z,93.52
2019-01-12T05:26:44.472Z,93.55
2019-01-12T05:29:11.922Z,93.47
2019-01-12T05:31:39.321Z,93.43
2019-01-12T05:34:06.791Z,93.49
2019-01-12T05:36:34.204Z,93.77
2019-01-12T05:39:01.677Z,93.78
2019-01-12T05:41:29.094Z,93.96
2019-01-12T05:43:56.532Z,93.99
2019-01-12T05:46:23.937Z,93.99
2019-01-12T05:48:51.352Z,93.72
2019-01-12T05:51:18.732Z,93.56
2019-01-12T05:53:46.507Z,93.47
2019-01-12T05:56:13.960Z,93.49
2019-01-12T05:58:41.507Z,93.25
2019-01-12T06:01:12.083Z,93.26
2019-01-12T06:03:39.522Z,93.35
2019-01-12T06:06:06.915Z,93.40
2019-01-12T06:08:34.347Z,93.37
2019-01-12T06:11:01.707Z,93.21
2019-01-12T06:13:29.212Z,92.98
2019-01-12T06:15:56.613Z,92.99
2019-01-12T06:18:24.067Z,92.91
2019-01-12T06:20:51.502Z,92.99
2019-01-12T06:23:18.903Z,93.20
2019-01-12T06:25:46.367Z,92.92
2019-01-12T06:28:14.431Z,92.59
2019-01-12T06:30:41.847Z,92.47
2019-01-12T06:33:09.223Z,92.31
2019-01-12T06:35:36.688Z,92.47
2019-01-12T06:38:04.207Z,92.85
2019-01-12T06:40:31.702Z,92.50
2019-01-12T06:42:59.112Z,92.30
2019-01-12T06:45:26.582Z,92.46
2019-01-12T06:47:53.982Z,91.83
2019-01-12T06:50:21.421Z,91.49
2019-01-12T06:52:48.867Z,91.29
2019-01-12T06:55:16.322Z,91.58
2019-01-12T06:57:43.941Z,91.91
2019-01-12T07:00:16.192Z,92.23
2019-01-12T07:02:43.594Z,92.22
2019-01-12T07:05:11.134Z,92.29
2019-01-12T07:07:38.540Z,92.40
2019-01-12T07:10:07.153Z,92.50
2019-01-12T07:12:34.608Z,92.49
2019-01-12T07:15:02.040Z,92.43
2019-01-12T07:17:29.419Z,92.37
2019-01-12T07:19:56.888Z,92.35
2019-01-12T07:22:24.332Z,92.32
2019-01-12T07:24:51.889Z,92.16
2019-01-12T07:27:19.280Z,92.00
2019-01-12T07:29:47.146Z,91.92
2019-01-12T07:32:14.572Z,91.62
2019-01-12T07:34:41.991Z,91.66
2019-01-12T07:37:09.427Z,91.43
2019-01-12T07:39:36.881Z,91.17
2019-01-12T07:42:04.442Z,91.13
2019-01-12T07:44:31.867Z,90.40
2019-01-12T07:46:59.368Z,90.24
2019-01-12T07:49:27.109Z,90.73
2019-01-12T07:51:57.442Z,90.87
2019-01-12T07:54:27.112Z,91.24
2019-01-12T07:56:54.665Z,90.91
2019-01-12T07:59:22.116Z,91.15
2019-01-12T08:01:49.586Z,91.10
2019-01-12T08:04:16.966Z,90.93
2019-01-12T08:06:44.487Z,90.85
2019-01-12T08:09:19.164Z,90.66
2019-01-12T08:11:46.717Z,90.42
2019-01-12T08:14:25.842Z,90.54
2019-01-12T08:16:53.407Z,90.35
2019-01-12T08:19:20.822Z,90.04
2019-01-12T08:21:48.254Z,90.39
2019-01-12T08:24:15.647Z,90.36
2019-01-12T08:26:44.964Z,90.77
2019-01-12T08:29:12.667Z,90.91
2019-01-12T08:31:40.108Z,90.46
2019-01-12T08:34:10.811Z,90.36
2019-01-12T08:36:40.718Z,90.79
2019-01-12T08:39:08.136Z,90.21
2019-01-12T08:41:36.097Z,89.82
2019-01-12T08:44:03.637Z,89.81
2019-01-12T08:46:33.237Z,89.98
2019-01-12T08:49:16.417Z,89.85
2019-01-12T08:51:46.402Z,90.00
2019-01-12T08:54:17.186Z,90.18
2019-01-12T08:56:45.512Z,90.71
2019-01-12T08:59:14.085Z,90.46
2019-01-12T09:01:41.677Z,90.41
2019-01-12T09:04:09.109Z,90.87
2019-01-12T09:06:36.677Z,91.16
2019-01-12T09:09:07.202Z,91.08
2019-01-12T09:11:34.697Z,90.88
2019-01-12T09:14:02.121Z,91.07
2019-01-12T09:16:29.582Z,91.15
2019-01-12T09:18:57.007Z,91.23
2019-01-12T09:21:24.407Z,91.05
2019-01-12T09:23:51.882Z,91.45
2019-01-12T09:26:19.314Z,91.44
2019-01-12T09:28:46.790Z,91.50
2019-01-12T09:31:14.281Z,91.41
2019-01-12T09:33:41.837Z,91.26
2019-01-12T09:36:56.503Z,91.13
2019-01-12T09:39:23.993Z,90.68
2019-01-12T09:41:51.520Z,90.75
2019-01-12T09:44:56.647Z,90.73
2019-01-12T09:47:24.656Z,90.48
2019-01-12T09:49:53.327Z,90.50
2019-01-12T09:52:20.938Z,90.51
2019-01-12T09:54:48.611Z,90.38
2019-01-12T09:57:28.222Z,90.41
2019-01-12T09:59:57.774Z,90.39
2019-01-12T10:02:26.426Z,90.54
2019-01-12T10:04:53.847Z,90.55
2019-01-12T10:07:21.926Z,90.80
2019-01-12T10:09:49.632Z,91.14
2019-01-12T10:12:22.158Z,91.08
2019-01-12T10:15:24.616Z,90.88
2019-01-12T10:17:52.086Z,91.01
2019-01-12T10:20:20.619Z,90.92
2019-01-12T10:22:48.272Z,90.79
2019-01-12T10:25:16.491Z,91.09
2019-01-12T10:27:44.160Z,90.88
2019-01-12T10:30:15.197Z,91.06
2019-01-12T10:32:42.807Z,91.20
2019-01-12T10:35:10.362Z,92.04
2019-01-12T10:37:37.783Z,92.28
2019-01-12T10:40:07.188Z,92.70
2019-01-12T10:42:34.641Z,92.91
2019-01-12T10:45:02.237Z,92.72
2019-01-12T10:47:29.703Z,92.89
2019-01-12T10:49:57.306Z,93.11
2019-01-12T10:52:24.772Z,93.26
2019-01-12T10:54:52.477Z,93.30
2019-01-12T10:57:20.057Z,93.26
2019-01-12T10:59:47.708Z,93.32
2019-01-12T11:02:15.354Z,93.31
2019-01-12T11:04:42.808Z,93.37
2019-01-12T11:07:17.146Z,93.43
2019-01-12T11:09:44.783Z,93.62
2019-01-12T11:12:16.248Z,93.51
2019-01-12T11:14:43.998Z,93.57
2019-01-12T11:17:11.448Z,93.76
2019-01-12T11:19:38.903Z,93.85
2019-01-12T11:22:06.443Z,93.77
2019-01-12T11:24:33.897Z,93.93
2019-01-12T11:27:01.419Z,94.12
2019-01-12T11:29:29.047Z,94.00
2019-01-12T11:31:56.486Z,94.17
2019-01-12T11:34:23.957Z,94.31
2019-01-12T11:36:51.372Z,94.16
2019-01-12T11:39:18.798Z,94.31
2019-01-12T11:41:46.312Z,94.29
2019-01-12T11:44:13.809Z,94.28
2019-01-12T11:46:41.313Z,94.28
2019-01-12T11:49:08.693Z,94.32
2019-01-12T11:51:36.162Z,94.23
2019-01-12T11:54:08.103Z,94.28
2019-01-12T11:56:35.527Z,94.43
2019-01-12T11:59:03.156Z,94.47
2019-01-12T12:01:30.687Z,94.63
2019-01-12T12:04:01.387Z,94.77
2019-01-12T12:06:55.792Z,94.71
2019-01-12T12:09:26.242Z,94.52
2019-01-12T12:11:53.703Z,94.61
2019-01-12T12:14:21.123Z,94.78
2019-01-12T12:16:48.623Z,94.91
2019-01-12T12:19:16.017Z,94.90
2019-01-12T12:21:43.507Z,95.01
2019-01-12T12:24:10.962Z,95.10
2019-01-12T12:26:38.469Z,95.15
2019-01-12T12:29:07.117Z,95.20
2019-01-12T12:31:35.142Z,95.40
2019-01-12T12:34:02.797Z,95.49
2019-01-12T12:36:31.957Z,95.42
2019-01-12T12:38:59.422Z,95.33
2019-01-12T12:41:27.023Z,95.24
2019-01-12T12:43:54.602Z,95.26
2019-01-12T12:46:22.090Z,96.90
2019-01-12T12:48:49.582Z,98.12
2019-01-12T12:51:17.057Z,98.57
2019-01-12T12:53:44.502Z,98.82
2019-01-12T12:56:12.012Z,98.99
2019-01-12T12:58:39.449Z,99.02
2019-01-12T13:01:06.972Z,99.13
2019-01-12T13:03:34.422Z,99.06
2019-01-12T13:06:01.957Z,98.93
2019-01-12T13:08:29.422Z,98.77
2019-01-12T13:10:56.942Z,98.18
2019-01-12T13:13:24.376Z,96.76
2019-01-12T13:15:51.983Z,96.31
2019-01-12T13:18:19.532Z,96.00
2019-01-12T13:20:47.088Z,95.77
2019-01-12T13:23:14.623Z,95.70
2019-01-12T13:25:42.113Z,95.63
2019-01-12T13:28:09.732Z,95.55
2019-01-12T13:30:37.286Z,95.46
2019-01-12T13:33:04.829Z,95.55
2019-01-12T13:35:32.592Z,95.36
2019-01-12T13:38:00.147Z,95.43
2019-01-12T13:40:28.713Z,95.49
2019-01-12T13:42:56.363Z,95.48
2019-01-12T13:45:23.967Z,95.43
2019-01-12T13:47:51.529Z,95.36
2019-01-12T13:50:21.242Z,95.27
2019-01-12T13:52:50.297Z,95.29
2019-01-12T13:55:19.235Z,95.24
2019-01-12T13:57:48.228Z,95.31
2019-01-12T14:00:33.463Z,95.43
2019-01-12T14:03:01.873Z,95.44
2019-01-12T14:05:29.482Z,95.39
2019-01-12T14:07:59.757Z,95.55
2019-01-12T14:10:27.477Z,95.37
2019-01-12T14:12:55.324Z,95.56
2019-01-12T14:15:23.023Z,95.62
2019-01-12T14:17:50.868Z,95.48
2019-01-12T14:20:26.321Z,95.66
2019-01-12T14:22:53.900Z,95.68
2019-01-12T14:25:24.168Z,95.76
2019-01-12T14:27:54.867Z,95.53
2019-01-12T14:30:22.672Z,95.59
2019-01-12T14:37:14.456Z,95.71
2019-01-12T14:41:03.723Z,95.83
2019-01-12T15:05:54.504Z,95.96
2019-01-12T15:11:24.820Z,95.91
2019-01-12T15:14:26.698Z,95.90
2019-01-12T15:17:13.602Z,95.92
2019-01-12T15:19:41.098Z,95.82
2019-01-12T15:23:54.264Z,95.80
2019-01-12T15:25:44.222Z,95.86
2019-01-12T15:28:54.681Z,95.75
2019-01-12T15:32:16.379Z,95.92
2019-01-12T15:34:50.792Z,95.94
2019-01-12T15:38:50.987Z,96.04
2019-01-12T15:41:37.696Z,96.12
2019-01-12T15:44:31.815Z,96.04
2019-01-12T15:48:21.603Z,96.01
2019-01-12T15:51:27.213Z,96.03
2019-01-12T15:57:51.159Z,95.75
2019-01-12T16:09:21.042Z,95.91
2019-01-12T16:20:51.225Z,95.61
2019-01-12T16:28:28.732Z,95.63
2019-01-12T16:35:20.248Z,95.70
2019-01-12T16:46:12.993Z,95.70
2019-01-12T16:52:59.997Z,95.59
2019-01-12T16:58:06.742Z,95.53
2019-01-12T17:03:05.369Z,95.63
2019-01-12T17:10:05.472Z,95.79
2019-01-12T17:30:11.332Z,92.39
2019-01-12T17:32:39.282Z,92.78
2019-01-12T17:35:08.801Z,93.50
2019-01-12T17:37:39.657Z,93.87
2019-01-12T17:40:12.020Z,94.25
2019-01-12T17:42:40.043Z,94.51
2019-01-12T17:45:11.155Z,94.31
2019-01-12T17:47:42.007Z,94.31
2019-01-12T17:50:11.497Z,94.40
2019-01-12T17:52:39.326Z,94.19
2019-01-12T17:55:09.401Z,94.22
2019-01-12T17:57:37.392Z,94.17
2019-01-12T18:00:07.248Z,94.41
2019-01-12T18:02:35.337Z,93.91
2019-01-12T18:05:03.862Z,93.59
2019-01-12T18:07:31.812Z,93.47
2019-01-12T18:09:59.502Z,92.92
2019-01-12T18:12:27.357Z,92.59
2019-01-12T18:14:55.027Z,92.69
2019-01-12T18:17:22.997Z,91.86
2019-01-12T18:19:50.850Z,92.23
2019-01-12T18:22:18.767Z,92.28
2019-01-12T18:24:46.667Z,92.32
2019-01-12T18:27:14.582Z,91.99
2019-01-12T18:29:42.472Z,91.64
2019-01-12T18:32:10.742Z,91.59
2019-01-12T18:34:38.643Z,91.76
2019-01-12T18:37:06.708Z,91.92
2019-01-12T18:39:34.395Z,91.90
2019-01-12T18:42:02.412Z,91.98
2019-01-12T18:44:30.272Z,92.22
2019-01-12T18:46:59.147Z,92.34
2019-01-12T18:49:27.107Z,92.53
2019-01-12T18:52:13.467Z,92.85
2019-01-12T18:54:42.497Z,93.18
2019-01-12T18:57:10.436Z,93.48
2019-01-12T18:59:39.477Z,93.75
2019-01-12T19:02:07.388Z,93.95
2019-01-12T19:04:35.645Z,93.84
2019-01-12T19:07:05.317Z,93.80
2019-01-12T19:09:33.421Z,93.69
2019-01-12T19:12:01.242Z,93.70
2019-01-12T19:14:29.117Z,93.54
2019-01-12T19:16:56.968Z,93.34
2019-01-12T19:19:24.838Z,93.23
2019-01-12T19:21:52.717Z,93.01
2019-01-12T19:24:21.057Z,92.95
2019-01-12T19:26:48.984Z,93.02
2019-01-12T19:29:16.924Z,92.95
2019-01-12T19:31:44.742Z,92.80
2019-01-12T19:34:12.742Z,92.58
2019-01-12T19:36:40.552Z,92.51
2019-01-12T19:39:08.867Z,92.26
2019-01-12T19:41:36.827Z,92.14
2019-01-12T19:44:04.827Z,91.98
2019-01-12T20:36:01.472Z,93.24
2019-01-12T21:14:29.427Z,89.89
2019-01-12T21:17:08.684Z,90.25
2019-01-12T21:19:36.658Z,90.65
2019-01-12T21:22:05.800Z,90.95
2019-01-12T21:42:31.823Z,92.33
2019-01-12T22:00:47.417Z,92.35
2019-01-12T22:04:04.622Z,92.46
2019-01-12T22:31:27.683Z,93.87
2019-01-12T22:36:33.032Z,94.31
2019-01-12T22:39:23.460Z,94.20
2019-01-12T22:51:38.820Z,93.13
2019-01-12T22:55:09.279Z,93.19
2019-01-12T22:57:50.786Z,93.53
2019-01-12T23:09:40.033Z,93.24
2019-01-12T23:13:09.318Z,93.37
2019-01-12T23:16:30.344Z,93.48
2019-01-12T23:22:24.366Z,93.87
